LFLU METAR and TAF | Updated Today

LFLU METAR

Valence-Chabeuil Airport

Observation time: 6 min. ago

LFLU 060730Z AUTO 34006KT 9999 -RA FEW009 BKN015 BKN041 03/02 Q1014

Need help? Read our tutorial on how to read METARs or read the parsed version below.

Valence-Chabeuil Airport (LFLU) METAR

  • Weather conditions on Mon, 06 Dec 2021 07:30:00 +0000 (6 min. ago):
  • Present conditions: Light rain
  • Clouds: A few at 274 meters; broken sky at 457 meters; broken sky at 1250 meters
  • Visibility: Greater than 10 km
  • Wind: 340 degrees at 6 knots
  • Temperature: 3 celsius
  • Dew point: 2 celsius
  • Pressure: 1014 millibars
  • Remarks: None


Useful to know...

LFLU TAF

Valence-Chabeuil Airport

TAF not found.